sensor_id;sensor_type;location;lat;lon;timestamp;P1;durP1;ratioP1;P2;durP2;ratioP2
55172;SDS011;41061;52.822;6.860;2023-03-11T00:00:47;6.47;;;2.38;;
55172;SDS011;41061;52.822;6.860;2023-03-11T00:03:15;4.03;;;1.10;;
55172;SDS011;41061;52.822;6.860;2023-03-11T00:05:43;3.85;;;1.05;;
55172;SDS011;41061;52.822;6.860;2023-03-11T00:08:10;8.23;;;1.15;;
55172;SDS011;41061;52.822;6.860;2023-03-11T00:10:38;6.43;;;0.82;;
55172;SDS011;41061;52.822;6.860;2023-03-11T00:13:05;8.98;;;1.20;;
55172;SDS011;41061;52.822;6.860;2023-03-11T00:15:32;7.50;;;1.20;;
55172;SDS011;41061;52.822;6.860;2023-03-11T00:17:58;2.35;;;1.02;;
55172;SDS011;41061;52.822;6.860;2023-03-11T00:20:25;7.93;;;1.33;;
55172;SDS011;41061;52.822;6.860;2023-03-11T00:22:52;5.57;;;1.13;;
55172;SDS011;41061;52.822;6.860;2023-03-11T00:25:19;6.18;;;1.90;;
55172;SDS011;41061;52.822;6.860;2023-03-11T00:27:45;7.40;;;1.20;;
55172;SDS011;41061;52.822;6.860;2023-03-11T00:30:12;9.63;;;2.25;;
55172;SDS011;41061;52.822;6.860;2023-03-11T00:32:38;4.78;;;1.50;;
55172;SDS011;41061;52.822;6.860;2023-03-11T00:35:04;7.68;;;1.45;;
55172;SDS011;41061;52.822;6.860;2023-03-11T00:37:31;4.72;;;1.80;;
55172;SDS011;41061;52.822;6.860;2023-03-11T00:39:58;2.90;;;1.40;;
55172;SDS011;41061;52.822;6.860;2023-03-11T00:42:24;6.22;;;1.30;;
55172;SDS011;41061;52.822;6.860;2023-03-11T00:44:50;8.55;;;1.45;;
55172;SDS011;41061;52.822;6.860;2023-03-11T00:47:16;8.23;;;1.48;;
55172;SDS011;41061;52.822;6.860;2023-03-11T00:49:42;4.97;;;1.10;;
55172;SDS011;41061;52.822;6.860;2023-03-11T00:52:08;11.48;;;2.00;;
55172;SDS011;41061;52.822;6.860;2023-03-11T00:54:34;8.05;;;1.52;;
55172;SDS011;41061;52.822;6.860;2023-03-11T00:57:00;5.03;;;1.35;;
55172;SDS011;41061;52.822;6.860;2023-03-11T00:59:26;6.88;;;1.42;;
55172;SDS011;41061;52.822;6.860;2023-03-11T01:01:52;6.03;;;1.50;;
55172;SDS011;41061;52.822;6.860;2023-03-11T01:04:18;7.35;;;1.10;;
55172;SDS011;41061;52.822;6.860;2023-03-11T01:06:44;7.15;;;1.40;;
55172;SDS011;41061;52.822;6.860;2023-03-11T01:09:10;9.73;;;1.40;;
55172;SDS011;41061;52.822;6.860;2023-03-11T01:11:36;5.68;;;1.20;;
55172;SDS011;41061;52.822;6.860;2023-03-11T01:14:02;6.50;;;1.27;;
55172;SDS011;41061;52.822;6.860;2023-03-11T01:16:28;6.72;;;1.73;;
55172;SDS011;41061;52.822;6.860;2023-03-11T01:18:54;8.68;;;1.30;;
55172;SDS011;41061;52.822;6.860;2023-03-11T01:21:20;4.97;;;1.20;;
55172;SDS011;41061;52.822;6.860;2023-03-11T01:23:46;8.23;;;1.55;;
55172;SDS011;41061;52.822;6.860;2023-03-11T01:26:12;4.18;;;1.48;;
55172;SDS011;41061;52.822;6.860;2023-03-11T01:28:39;6.05;;;1.60;;
55172;SDS011;41061;52.822;6.860;2023-03-11T01:31:07;5.00;;;1.27;;
55172;SDS011;41061;52.822;6.860;2023-03-11T01:33:33;6.57;;;1.27;;
55172;SDS011;41061;52.822;6.860;2023-03-11T01:36:00;9.20;;;1.50;;
55172;SDS011;41061;52.822;6.860;2023-03-11T01:38:26;7.90;;;1.27;;
55172;SDS011;41061;52.822;6.860;2023-03-11T01:40:52;5.38;;;1.30;;
55172;SDS011;41061;52.822;6.860;2023-03-11T01:48:37;9.02;;;1.55;;
55172;SDS011;41061;52.822;6.860;2023-03-11T01:51:04;5.60;;;1.38;;
55172;SDS011;41061;52.822;6.860;2023-03-11T01:53:31;9.40;;;1.63;;
55172;SDS011;41061;52.822;6.860;2023-03-11T01:55:57;4.60;;;1.17;;
55172;SDS011;41061;52.822;6.860;2023-03-11T01:58:24;7.57;;;1.70;;
55172;SDS011;41061;52.822;6.860;2023-03-11T02:00:51;4.75;;;1.40;;
55172;SDS011;41061;52.822;6.860;2023-03-11T02:03:29;5.05;;;1.25;;
55172;SDS011;41061;52.822;6.860;2023-03-11T02:05:56;5.10;;;1.27;;
55172;SDS011;41061;52.822;6.860;2023-03-11T02:08:22;11.00;;;1.45;;
55172;SDS011;41061;52.822;6.860;2023-03-11T02:10:49;9.77;;;2.00;;
55172;SDS011;41061;52.822;6.860;2023-03-11T02:13:17;6.95;;;2.28;;
55172;SDS011;41061;52.822;6.860;2023-03-11T02:15:44;8.57;;;1.25;;
55172;SDS011;41061;52.822;6.860;2023-03-11T02:18:11;7.82;;;1.35;;
55172;SDS011;41061;52.822;6.860;2023-03-11T02:20:43;3.20;;;1.30;;
55172;SDS011;41061;52.822;6.860;2023-03-11T02:23:14;6.53;;;1.10;;
55172;SDS011;41061;52.822;6.860;2023-03-11T02:25:49;10.45;;;1.38;;
55172;SDS011;41061;52.822;6.860;2023-03-11T02:28:16;8.52;;;1.35;;
55172;SDS011;41061;52.822;6.860;2023-03-11T02:30:43;12.07;;;1.70;;
55172;SDS011;41061;52.822;6.860;2023-03-11T02:33:10;5.50;;;1.48;;
55172;SDS011;41061;52.822;6.860;2023-03-11T02:35:38;7.85;;;1.30;;
55172;SDS011;41061;52.822;6.860;2023-03-11T02:38:04;7.85;;;2.55;;
55172;SDS011;41061;52.822;6.860;2023-03-11T02:40:45;5.93;;;1.50;;
55172;SDS011;41061;52.822;6.860;2023-03-11T02:43:14;6.03;;;1.42;;
55172;SDS011;41061;52.822;6.860;2023-03-11T02:45:41;4.25;;;1.40;;
55172;SDS011;41061;52.822;6.860;2023-03-11T02:48:08;9.95;;;1.30;;
55172;SDS011;41061;52.822;6.860;2023-03-11T02:50:35;8.38;;;1.05;;
55172;SDS011;41061;52.822;6.860;2023-03-11T02:53:01;3.58;;;0.80;;
55172;SDS011;41061;52.822;6.860;2023-03-11T02:55:28;5.40;;;1.02;;
55172;SDS011;41061;52.822;6.860;2023-03-11T02:57:54;9.25;;;1.25;;
55172;SDS011;41061;52.822;6.860;2023-03-11T03:00:20;4.40;;;1.02;;
55172;SDS011;41061;52.822;6.860;2023-03-11T03:02:46;6.40;;;1.02;;
55172;SDS011;41061;52.822;6.860;2023-03-11T03:05:16;6.30;;;1.20;;
55172;SDS011;41061;52.822;6.860;2023-03-11T03:07:45;5.80;;;1.23;;
55172;SDS011;41061;52.822;6.860;2023-03-11T03:10:12;6.13;;;1.45;;
55172;SDS011;41061;52.822;6.860;2023-03-11T03:12:39;4.20;;;0.90;;
55172;SDS011;41061;52.822;6.860;2023-03-11T03:15:05;6.07;;;1.10;;
55172;SDS011;41061;52.822;6.860;2023-03-11T03:17:31;4.80;;;1.75;;
55172;SDS011;41061;52.822;6.860;2023-03-11T03:19:57;2.47;;;0.77;;
55172;SDS011;41061;52.822;6.860;2023-03-11T03:22:23;7.85;;;1.15;;
55172;SDS011;41061;52.822;6.860;2023-03-11T03:24:51;12.15;;;1.70;;
55172;SDS011;41061;52.822;6.860;2023-03-11T03:27:18;3.22;;;0.88;;
55172;SDS011;41061;52.822;6.860;2023-03-11T03:29:44;4.20;;;0.85;;
55172;SDS011;41061;52.822;6.860;2023-03-11T03:32:10;9.52;;;1.52;;
55172;SDS011;41061;52.822;6.860;2023-03-11T03:34:36;7.22;;;1.30;;
55172;SDS011;41061;52.822;6.860;2023-03-11T03:37:02;6.53;;;1.00;;
55172;SDS011;41061;52.822;6.860;2023-03-11T03:39:28;5.80;;;1.05;;
55172;SDS011;41061;52.822;6.860;2023-03-11T03:41:54;5.25;;;1.00;;
55172;SDS011;41061;52.822;6.860;2023-03-11T03:44:20;3.80;;;1.10;;
55172;SDS011;41061;52.822;6.860;2023-03-11T03:46:46;7.32;;;1.08;;
55172;SDS011;41061;52.822;6.860;2023-03-11T03:49:12;5.30;;;1.00;;
55172;SDS011;41061;52.822;6.860;2023-03-11T03:51:38;4.70;;;1.05;;
55172;SDS011;41061;52.822;6.860;2023-03-11T03:54:04;7.15;;;1.20;;
55172;SDS011;41061;52.822;6.860;2023-03-11T03:56:30;3.03;;;0.85;;
55172;SDS011;41061;52.822;6.860;2023-03-11T03:58:56;4.72;;;0.95;;
55172;SDS011;41061;52.822;6.860;2023-03-11T04:01:22;3.92;;;0.98;;
55172;SDS011;41061;52.822;6.860;2023-03-11T04:03:48;5.22;;;1.23;;
55172;SDS011;41061;52.822;6.860;2023-03-11T04:06:16;9.18;;;1.33;;
55172;SDS011;41061;52.822;6.860;2023-03-11T04:08:42;11.35;;;1.40;;
55172;SDS011;41061;52.822;6.860;2023-03-11T04:11:09;5.70;;;0.88;;
55172;SDS011;41061;52.822;6.860;2023-03-11T04:13:35;6.57;;;0.90;;
55172;SDS011;41061;52.822;6.860;2023-03-11T04:16:04;8.68;;;1.00;;
55172;SDS011;41061;52.822;6.860;2023-03-11T04:18:31;9.20;;;1.33;;
55172;SDS011;41061;52.822;6.860;2023-03-11T04:20:57;4.45;;;0.98;;
55172;SDS011;41061;52.822;6.860;2023-03-11T04:23:23;4.28;;;0.90;;
55172;SDS011;41061;52.822;6.860;2023-03-11T04:25:49;5.22;;;0.90;;
55172;SDS011;41061;52.822;6.860;2023-03-11T04:28:15;4.00;;;0.90;;
55172;SDS011;41061;52.822;6.860;2023-03-11T04:30:41;5.63;;;1.02;;
55172;SDS011;41061;52.822;6.860;2023-03-11T04:33:07;5.32;;;0.80;;
55172;SDS011;41061;52.822;6.860;2023-03-11T04:35:33;2.05;;;0.88;;
55172;SDS011;41061;52.822;6.860;2023-03-11T04:38:00;2.85;;;0.85;;
55172;SDS011;41061;52.822;6.860;2023-03-11T04:40:26;6.50;;;1.08;;
55172;SDS011;41061;52.822;6.860;2023-03-11T04:42:52;4.88;;;0.95;;
55172;SDS011;41061;52.822;6.860;2023-03-11T04:45:18;3.47;;;0.85;;
55172;SDS011;41061;52.822;6.860;2023-03-11T04:47:48;2.70;;;0.60;;
55172;SDS011;41061;52.822;6.860;2023-03-11T04:50:15;6.07;;;0.98;;
55172;SDS011;41061;52.822;6.860;2023-03-11T04:52:41;8.95;;;1.10;;
55172;SDS011;41061;52.822;6.860;2023-03-11T04:55:07;4.13;;;0.70;;
55172;SDS011;41061;52.822;6.860;2023-03-11T04:57:33;4.53;;;1.00;;
55172;SDS011;41061;52.822;6.860;2023-03-11T04:59:59;5.05;;;0.90;;
55172;SDS011;41061;52.822;6.860;2023-03-11T05:02:25;4.82;;;1.35;;
55172;SDS011;41061;52.822;6.860;2023-03-11T05:04:52;3.85;;;0.90;;
55172;SDS011;41061;52.822;6.860;2023-03-11T05:07:18;4.47;;;0.90;;
55172;SDS011;41061;52.822;6.860;2023-03-11T05:09:44;1.92;;;0.60;;
55172;SDS011;41061;52.822;6.860;2023-03-11T05:12:11;7.50;;;1.08;;
55172;SDS011;41061;52.822;6.860;2023-03-11T05:14:37;5.63;;;0.90;;
55172;SDS011;41061;52.822;6.860;2023-03-11T05:17:03;10.40;;;1.08;;
55172;SDS011;41061;52.822;6.860;2023-03-11T05:19:29;4.13;;;0.73;;
55172;SDS011;41061;52.822;6.860;2023-03-11T05:21:56;5.07;;;1.10;;
55172;SDS011;41061;52.822;6.860;2023-03-11T05:24:23;7.55;;;1.00;;
55172;SDS011;41061;52.822;6.860;2023-03-11T05:26:52;1.80;;;0.80;;
55172;SDS011;41061;52.822;6.860;2023-03-11T05:29:18;2.72;;;0.98;;
55172;SDS011;41061;52.822;6.860;2023-03-11T05:31:45;3.05;;;0.85;;
55172;SDS011;41061;52.822;6.860;2023-03-11T05:34:12;4.25;;;1.63;;
55172;SDS011;41061;52.822;6.860;2023-03-11T05:36:38;4.93;;;1.05;;
55172;SDS011;41061;52.822;6.860;2023-03-11T05:39:04;4.25;;;1.00;;
55172;SDS011;41061;52.822;6.860;2023-03-11T05:41:29;3.55;;;1.35;;
55172;SDS011;41061;52.822;6.860;2023-03-11T05:43:55;5.40;;;1.02;;
55172;SDS011;41061;52.822;6.860;2023-03-11T05:46:21;6.05;;;1.10;;
55172;SDS011;41061;52.822;6.860;2023-03-11T05:48:47;6.35;;;1.10;;
55172;SDS011;41061;52.822;6.860;2023-03-11T05:51:13;6.30;;;0.90;;
55172;SDS011;41061;52.822;6.860;2023-03-11T05:53:41;6.07;;;0.95;;
55172;SDS011;41061;52.822;6.860;2023-03-11T05:56:12;3.35;;;1.05;;
55172;SDS011;41061;52.822;6.860;2023-03-11T05:58:42;1.77;;;0.80;;
55172;SDS011;41061;52.822;6.860;2023-03-11T06:01:08;4.80;;;1.05;;
55172;SDS011;41061;52.822;6.860;2023-03-11T06:03:35;3.33;;;1.20;;
55172;SDS011;41061;52.822;6.860;2023-03-11T06:06:01;3.95;;;1.20;;
55172;SDS011;41061;52.822;6.860;2023-03-11T06:08:28;3.13;;;0.93;;
55172;SDS011;41061;52.822;6.860;2023-03-11T06:10:59;5.22;;;1.05;;
55172;SDS011;41061;52.822;6.860;2023-03-11T06:13:29;5.53;;;1.00;;
55172;SDS011;41061;52.822;6.860;2023-03-11T06:15:55;3.45;;;0.88;;
55172;SDS011;41061;52.822;6.860;2023-03-11T06:18:21;6.57;;;1.05;;
55172;SDS011;41061;52.822;6.860;2023-03-11T06:20:47;4.55;;;1.02;;
55172;SDS011;41061;52.822;6.860;2023-03-11T06:23:13;3.95;;;1.27;;
55172;SDS011;41061;52.822;6.860;2023-03-11T06:25:39;3.97;;;0.90;;
55172;SDS011;41061;52.822;6.860;2023-03-11T06:28:05;1.98;;;0.77;;
55172;SDS011;41061;52.822;6.860;2023-03-11T06:30:30;3.58;;;1.00;;
55172;SDS011;41061;52.822;6.860;2023-03-11T06:32:56;3.90;;;1.08;;
55172;SDS011;41061;52.822;6.860;2023-03-11T06:35:22;5.68;;;0.85;;
55172;SDS011;41061;52.822;6.860;2023-03-11T06:37:48;2.75;;;1.00;;
55172;SDS011;41061;52.822;6.860;2023-03-11T06:40:13;3.50;;;1.10;;
55172;SDS011;41061;52.822;6.860;2023-03-11T06:42:39;3.30;;;0.98;;
55172;SDS011;41061;52.822;6.860;2023-03-11T06:45:05;3.95;;;1.08;;
55172;SDS011;41061;52.822;6.860;2023-03-11T06:47:31;3.67;;;1.05;;
55172;SDS011;41061;52.822;6.860;2023-03-11T06:49:57;3.80;;;1.10;;
55172;SDS011;41061;52.822;6.860;2023-03-11T06:52:22;5.20;;;1.10;;
55172;SDS011;41061;52.822;6.860;2023-03-11T06:54:48;7.78;;;1.70;;
55172;SDS011;41061;52.822;6.860;2023-03-11T06:57:14;2.97;;;1.02;;
55172;SDS011;41061;52.822;6.860;2023-03-11T06:59:40;9.13;;;1.27;;
55172;SDS011;41061;52.822;6.860;2023-03-11T07:02:06;4.70;;;0.70;;
55172;SDS011;41061;52.822;6.860;2023-03-11T07:04:37;6.60;;;0.98;;
55172;SDS011;41061;52.822;6.860;2023-03-11T07:07:02;5.47;;;1.00;;
55172;SDS011;41061;52.822;6.860;2023-03-11T07:09:28;5.63;;;1.38;;
55172;SDS011;41061;52.822;6.860;2023-03-11T07:11:54;6.13;;;1.20;;
55172;SDS011;41061;52.822;6.860;2023-03-11T07:14:20;5.93;;;1.05;;
55172;SDS011;41061;52.822;6.860;2023-03-11T07:16:46;4.22;;;1.30;;
55172;SDS011;41061;52.822;6.860;2023-03-11T07:19:11;6.70;;;3.10;;
55172;SDS011;41061;52.822;6.860;2023-03-11T07:21:38;3.75;;;1.10;;
55172;SDS011;41061;52.822;6.860;2023-03-11T07:24:05;3.47;;;1.10;;
55172;SDS011;41061;52.822;6.860;2023-03-11T07:26:32;4.07;;;0.88;;
55172;SDS011;41061;52.822;6.860;2023-03-11T07:28:59;4.25;;;1.60;;
55172;SDS011;41061;52.822;6.860;2023-03-11T07:31:26;3.45;;;1.02;;
55172;SDS011;41061;52.822;6.860;2023-03-11T07:33:53;4.30;;;1.10;;
55172;SDS011;41061;52.822;6.860;2023-03-11T07:36:21;4.93;;;1.02;;
55172;SDS011;41061;52.822;6.860;2023-03-11T07:38:52;4.88;;;1.25;;
55172;SDS011;41061;52.822;6.860;2023-03-11T07:41:19;4.18;;;1.10;;
55172;SDS011;41061;52.822;6.860;2023-03-11T07:43:45;6.30;;;1.77;;
55172;SDS011;41061;52.822;6.860;2023-03-11T07:46:12;2.08;;;1.15;;
55172;SDS011;41061;52.822;6.860;2023-03-11T07:48:40;5.70;;;1.25;;
55172;SDS011;41061;52.822;6.860;2023-03-11T07:51:08;6.80;;;1.30;;
55172;SDS011;41061;52.822;6.860;2023-03-11T07:53:36;3.45;;;0.90;;
55172;SDS011;41061;52.822;6.860;2023-03-11T07:56:02;7.47;;;1.20;;
55172;SDS011;41061;52.822;6.860;2023-03-11T07:58:29;2.60;;;0.90;;
55172;SDS011;41061;52.822;6.860;2023-03-11T08:00:55;5.20;;;1.30;;
55172;SDS011;41061;52.822;6.860;2023-03-11T08:03:24;3.65;;;1.30;;
55172;SDS011;41061;52.822;6.860;2023-03-11T08:05:50;1.83;;;1.15;;
55172;SDS011;41061;52.822;6.860;2023-03-11T08:08:16;4.60;;;0.98;;
55172;SDS011;41061;52.822;6.860;2023-03-11T08:10:42;6.22;;;1.27;;
55172;SDS011;41061;52.822;6.860;2023-03-11T08:13:07;9.85;;;2.75;;
55172;SDS011;41061;52.822;6.860;2023-03-11T08:15:33;9.85;;;1.38;;
55172;SDS011;41061;52.822;6.860;2023-03-11T08:18:00;11.45;;;1.50;;
55172;SDS011;41061;52.822;6.860;2023-03-11T08:20:26;4.10;;;1.60;;
55172;SDS011;41061;52.822;6.860;2023-03-11T08:22:52;4.47;;;1.35;;
55172;SDS011;41061;52.822;6.860;2023-03-11T08:25:18;8.60;;;1.30;;
55172;SDS011;41061;52.822;6.860;2023-03-11T08:27:43;8.15;;;1.20;;
55172;SDS011;41061;52.822;6.860;2023-03-11T08:30:09;5.43;;;1.17;;
55172;SDS011;41061;52.822;6.860;2023-03-11T08:32:36;7.72;;;1.48;;
55172;SDS011;41061;52.822;6.860;2023-03-11T08:35:01;6.57;;;1.30;;
55172;SDS011;41061;52.822;6.860;2023-03-11T08:37:27;7.63;;;2.45;;
55172;SDS011;41061;52.822;6.860;2023-03-11T08:39:53;5.15;;;1.70;;
55172;SDS011;41061;52.822;6.860;2023-03-11T08:42:18;7.20;;;1.50;;
55172;SDS011;41061;52.822;6.860;2023-03-11T08:44:45;6.47;;;2.33;;
55172;SDS011;41061;52.822;6.860;2023-03-11T08:47:11;6.18;;;1.25;;
55172;SDS011;41061;52.822;6.860;2023-03-11T08:49:37;7.53;;;2.60;;
55172;SDS011;41061;52.822;6.860;2023-03-11T08:52:03;4.57;;;0.90;;
55172;SDS011;41061;52.822;6.860;2023-03-11T08:54:29;2.97;;;0.80;;
55172;SDS011;41061;52.822;6.860;2023-03-11T08:56:56;6.75;;;1.20;;
55172;SDS011;41061;52.822;6.860;2023-03-11T08:59:22;7.68;;;1.10;;
55172;SDS011;41061;52.822;6.860;2023-03-11T09:01:48;8.80;;;1.45;;
55172;SDS011;41061;52.822;6.860;2023-03-11T09:04:14;7.63;;;1.50;;
55172;SDS011;41061;52.822;6.860;2023-03-11T09:06:42;10.18;;;1.75;;
55172;SDS011;41061;52.822;6.860;2023-03-11T09:09:12;2.95;;;1.20;;
55172;SDS011;41061;52.822;6.860;2023-03-11T09:11:37;5.43;;;1.50;;
55172;SDS011;41061;52.822;6.860;2023-03-11T09:14:03;9.70;;;2.33;;
55172;SDS011;41061;52.822;6.860;2023-03-11T09:16:29;4.20;;;1.67;;
55172;SDS011;41061;52.822;6.860;2023-03-11T09:18:55;3.95;;;1.38;;
55172;SDS011;41061;52.822;6.860;2023-03-11T09:21:35;16.92;;;2.17;;
55172;SDS011;41061;52.822;6.860;2023-03-11T09:24:01;5.32;;;0.95;;
55172;SDS011;41061;52.822;6.860;2023-03-11T09:26:28;6.22;;;1.08;;
55172;SDS011;41061;52.822;6.860;2023-03-11T09:28:54;6.60;;;1.13;;
55172;SDS011;41061;52.822;6.860;2023-03-11T09:31:20;5.03;;;1.85;;
55172;SDS011;41061;52.822;6.860;2023-03-11T09:33:48;6.43;;;1.00;;
55172;SDS011;41061;52.822;6.860;2023-03-11T09:36:17;9.75;;;1.48;;
55172;SDS011;41061;52.822;6.860;2023-03-11T09:38:45;3.38;;;1.02;;
55172;SDS011;41061;52.822;6.860;2023-03-11T09:55:23;4.93;;;1.33;;
55172;SDS011;41061;52.822;6.860;2023-03-11T09:57:51;5.88;;;1.20;;
55172;SDS011;41061;52.822;6.860;2023-03-11T10:00:18;8.05;;;1.05;;
55172;SDS011;41061;52.822;6.860;2023-03-11T10:02:48;4.00;;;1.48;;
55172;SDS011;41061;52.822;6.860;2023-03-11T10:05:32;3.50;;;1.20;;
55172;SDS011;41061;52.822;6.860;2023-03-11T10:08:05;9.63;;;1.33;;
55172;SDS011;41061;52.822;6.860;2023-03-11T10:10:58;7.75;;;1.20;;
55172;SDS011;41061;52.822;6.860;2023-03-11T10:13:44;7.43;;;1.20;;
55172;SDS011;41061;52.822;6.860;2023-03-11T10:16:27;10.68;;;1.05;;
55172;SDS011;41061;52.822;6.860;2023-03-11T10:22:13;5.50;;;1.20;;
55172;SDS011;41061;52.822;6.860;2023-03-11T10:27:38;7.20;;;1.27;;
55172;SDS011;41061;52.822;6.860;2023-03-11T10:30:22;4.82;;;1.27;;
55172;SDS011;41061;52.822;6.860;2023-03-11T10:40:55;6.13;;;1.80;;
55172;SDS011;41061;52.822;6.860;2023-03-11T10:43:30;4.68;;;1.40;;
55172;SDS011;41061;52.822;6.860;2023-03-11T10:46:18;7.32;;;1.20;;
55172;SDS011;41061;52.822;6.860;2023-03-11T10:48:53;5.25;;;1.40;;
55172;SDS011;41061;52.822;6.860;2023-03-11T10:51:20;9.00;;;1.70;;
55172;SDS011;41061;52.822;6.860;2023-03-11T10:53:54;8.43;;;1.52;;
55172;SDS011;41061;52.822;6.860;2023-03-11T10:56:26;9.30;;;2.35;;
55172;SDS011;41061;52.822;6.860;2023-03-11T10:59:00;4.95;;;1.67;;
55172;SDS011;41061;52.822;6.860;2023-03-11T11:01:28;8.40;;;1.70;;
55172;SDS011;41061;52.822;6.860;2023-03-11T11:03:54;5.38;;;1.60;;
55172;SDS011;41061;52.822;6.860;2023-03-11T11:06:27;6.45;;;1.52;;
55172;SDS011;41061;52.822;6.860;2023-03-11T11:12:20;4.65;;;1.63;;
55172;SDS011;41061;52.822;6.860;2023-03-11T11:14:40;7.07;;;1.20;;
55172;SDS011;41061;52.822;6.860;2023-03-11T11:17:14;12.15;;;1.83;;
55172;SDS011;41061;52.822;6.860;2023-03-11T11:19:48;9.68;;;1.25;;
55172;SDS011;41061;52.822;6.860;2023-03-11T11:22:16;7.25;;;1.25;;
55172;SDS011;41061;52.822;6.860;2023-03-11T11:24:44;7.50;;;2.35;;
55172;SDS011;41061;52.822;6.860;2023-03-11T11:27:19;4.78;;;1.00;;
55172;SDS011;41061;52.822;6.860;2023-03-11T11:29:47;3.80;;;1.00;;
55172;SDS011;41061;52.822;6.860;2023-03-11T11:32:27;5.97;;;1.00;;
55172;SDS011;41061;52.822;6.860;2023-03-11T11:37:19;5.93;;;1.00;;
55172;SDS011;41061;52.822;6.860;2023-03-11T11:39:48;8.73;;;1.20;;
55172;SDS011;41061;52.822;6.860;2023-03-11T11:42:17;8.35;;;1.25;;
55172;SDS011;41061;52.822;6.860;2023-03-11T11:44:48;5.55;;;1.20;;
55172;SDS011;41061;52.822;6.860;2023-03-11T11:47:38;4.20;;;1.20;;
55172;SDS011;41061;52.822;6.860;2023-03-11T11:50:10;7.07;;;1.13;;
55172;SDS011;41061;52.822;6.860;2023-03-11T11:52:41;7.03;;;1.25;;
55172;SDS011;41061;52.822;6.860;2023-03-11T11:55:27;4.15;;;1.00;;
55172;SDS011;41061;52.822;6.860;2023-03-11T11:57:55;5.95;;;1.00;;
55172;SDS011;41061;52.822;6.860;2023-03-11T12:00:22;6.75;;;1.20;;
55172;SDS011;41061;52.822;6.860;2023-03-11T12:05:27;8.23;;;1.80;;
55172;SDS011;41061;52.822;6.860;2023-03-11T12:13:21;5.38;;;0.90;;
55172;SDS011;41061;52.822;6.860;2023-03-11T12:18:42;6.45;;;1.20;;
55172;SDS011;41061;52.822;6.860;2023-03-11T12:23:49;4.95;;;1.25;;
55172;SDS011;41061;52.822;6.860;2023-03-11T12:26:23;6.38;;;1.60;;
55172;SDS011;41061;52.822;6.860;2023-03-11T12:31:17;9.63;;;1.00;;
55172;SDS011;41061;52.822;6.860;2023-03-11T12:33:48;1.95;;;0.70;;
55172;SDS011;41061;52.822;6.860;2023-03-11T12:36:22;3.58;;;1.00;;
55172;SDS011;41061;52.822;6.860;2023-03-11T12:38:49;9.60;;;1.27;;
55172;SDS011;41061;52.822;6.860;2023-03-11T12:43:56;1.27;;;0.80;;
55172;SDS011;41061;52.822;6.860;2023-03-11T12:46:23;6.72;;;1.35;;
55172;SDS011;41061;52.822;6.860;2023-03-11T12:56:54;10.25;;;0.93;;
55172;SDS011;41061;52.822;6.860;2023-03-11T13:05:19;9.73;;;0.90;;
55172;SDS011;41061;52.822;6.860;2023-03-11T13:07:34;3.85;;;0.93;;
55172;SDS011;41061;52.822;6.860;2023-03-11T13:12:40;4.28;;;1.10;;
55172;SDS011;41061;52.822;6.860;2023-03-11T13:25:37;7.43;;;1.23;;
55172;SDS011;41061;52.822;6.860;2023-03-11T13:31:04;5.45;;;1.20;;
55172;SDS011;41061;52.822;6.860;2023-03-11T13:40:59;5.60;;;0.88;;
55172;SDS011;41061;52.822;6.860;2023-03-11T13:43:27;4.15;;;0.80;;
55172;SDS011;41061;52.822;6.860;2023-03-11T13:46:07;3.42;;;0.90;;
55172;SDS011;41061;52.822;6.860;2023-03-11T13:48:39;6.95;;;0.90;;
55172;SDS011;41061;52.822;6.860;2023-03-11T13:51:10;5.03;;;0.93;;
55172;SDS011;41061;52.822;6.860;2023-03-11T13:53:42;1.70;;;0.70;;
55172;SDS011;41061;52.822;6.860;2023-03-11T13:56:24;5.50;;;0.85;;
55172;SDS011;41061;52.822;6.860;2023-03-11T13:58:51;2.08;;;0.80;;
55172;SDS011;41061;52.822;6.860;2023-03-11T14:01:17;3.42;;;0.60;;
55172;SDS011;41061;52.822;6.860;2023-03-11T14:03:45;1.85;;;0.50;;
55172;SDS011;41061;52.822;6.860;2023-03-11T14:06:15;2.08;;;0.52;;
55172;SDS011;41061;52.822;6.860;2023-03-11T14:08:42;4.18;;;0.80;;
55172;SDS011;41061;52.822;6.860;2023-03-11T14:13:39;5.32;;;1.02;;
55172;SDS011;41061;52.822;6.860;2023-03-11T14:16:16;3.13;;;0.70;;
55172;SDS011;41061;52.822;6.860;2023-03-11T14:18:44;5.32;;;0.63;;
55172;SDS011;41061;52.822;6.860;2023-03-11T14:21:11;7.20;;;0.60;;
55172;SDS011;41061;52.822;6.860;2023-03-11T14:23:39;2.58;;;0.85;;
55172;SDS011;41061;52.822;6.860;2023-03-11T14:26:07;6.13;;;0.73;;
55172;SDS011;41061;52.822;6.860;2023-03-11T14:28:35;2.78;;;0.50;;
55172;SDS011;41061;52.822;6.860;2023-03-11T14:31:01;2.10;;;0.45;;
55172;SDS011;41061;52.822;6.860;2023-03-11T14:33:28;1.38;;;0.60;;
55172;SDS011;41061;52.822;6.860;2023-03-11T14:35:58;5.38;;;0.80;;
55172;SDS011;41061;52.822;6.860;2023-03-11T14:38:26;1.17;;;0.50;;
55172;SDS011;41061;52.822;6.860;2023-03-11T14:40:59;3.70;;;0.50;;
55172;SDS011;41061;52.822;6.860;2023-03-11T14:43:26;3.58;;;0.68;;
55172;SDS011;41061;52.822;6.860;2023-03-11T14:45:53;2.42;;;0.70;;
55172;SDS011;41061;52.822;6.860;2023-03-11T14:48:36;4.20;;;0.60;;
55172;SDS011;41061;52.822;6.860;2023-03-11T14:51:03;4.80;;;0.50;;
55172;SDS011;41061;52.822;6.860;2023-03-11T14:56:13;2.33;;;0.70;;
55172;SDS011;41061;52.822;6.860;2023-03-11T14:58:43;5.63;;;0.70;;
55172;SDS011;41061;52.822;6.860;2023-03-11T15:03:58;5.38;;;0.60;;
55172;SDS011;41061;52.822;6.860;2023-03-11T15:06:24;2.40;;;0.82;;
55172;SDS011;41061;52.822;6.860;2023-03-11T15:08:58;5.63;;;0.63;;
55172;SDS011;41061;52.822;6.860;2023-03-11T15:11:25;2.50;;;0.50;;
55172;SDS011;41061;52.822;6.860;2023-03-11T15:13:52;5.00;;;0.50;;
55172;SDS011;41061;52.822;6.860;2023-03-11T15:18:54;6.40;;;0.95;;
55172;SDS011;41061;52.822;6.860;2023-03-11T15:21:21;3.38;;;0.55;;
55172;SDS011;41061;52.822;6.860;2023-03-11T15:23:49;2.05;;;0.80;;
55172;SDS011;41061;52.822;6.860;2023-03-11T15:26:20;2.92;;;0.47;;
55172;SDS011;41061;52.822;6.860;2023-03-11T15:28:51;9.23;;;1.75;;
55172;SDS011;41061;52.822;6.860;2023-03-11T15:33:46;3.05;;;0.55;;
55172;SDS011;41061;52.822;6.860;2023-03-11T15:36:29;2.50;;;0.77;;
55172;SDS011;41061;52.822;6.860;2023-03-11T15:41:33;6.38;;;1.10;;
55172;SDS011;41061;52.822;6.860;2023-03-11T15:43:59;4.93;;;1.00;;
55172;SDS011;41061;52.822;6.860;2023-03-11T15:46:28;3.90;;;0.70;;
55172;SDS011;41061;52.822;6.860;2023-03-11T15:48:54;3.17;;;0.77;;
55172;SDS011;41061;52.822;6.860;2023-03-11T15:51:20;11.27;;;1.27;;
55172;SDS011;41061;52.822;6.860;2023-03-11T15:53:46;4.43;;;1.00;;
55172;SDS011;41061;52.822;6.860;2023-03-11T15:56:15;8.15;;;1.23;;
55172;SDS011;41061;52.822;6.860;2023-03-11T15:58:44;7.57;;;3.70;;
55172;SDS011;41061;52.822;6.860;2023-03-11T16:01:10;7.35;;;2.03;;
55172;SDS011;41061;52.822;6.860;2023-03-11T16:03:36;12.40;;;6.03;;
55172;SDS011;41061;52.822;6.860;2023-03-11T16:06:02;9.75;;;3.47;;
55172;SDS011;41061;52.822;6.860;2023-03-11T16:08:29;29.95;;;14.52;;
55172;SDS011;41061;52.822;6.860;2023-03-11T16:10:55;9.88;;;1.52;;
55172;SDS011;41061;52.822;6.860;2023-03-11T16:13:22;6.82;;;1.20;;
55172;SDS011;41061;52.822;6.860;2023-03-11T16:15:48;3.63;;;1.25;;
55172;SDS011;41061;52.822;6.860;2023-03-11T16:18:14;4.97;;;1.98;;
55172;SDS011;41061;52.822;6.860;2023-03-11T16:20:44;7.15;;;1.20;;
55172;SDS011;41061;52.822;6.860;2023-03-11T16:23:13;6.07;;;1.20;;
55172;SDS011;41061;52.822;6.860;2023-03-11T16:25:41;7.50;;;2.10;;
55172;SDS011;41061;52.822;6.860;2023-03-11T16:28:09;9.32;;;3.40;;
55172;SDS011;41061;52.822;6.860;2023-03-11T16:30:36;8.15;;;1.20;;
55172;SDS011;41061;52.822;6.860;2023-03-11T16:33:02;14.27;;;4.47;;
55172;SDS011;41061;52.822;6.860;2023-03-11T16:35:28;139.00;;;58.22;;
55172;SDS011;41061;52.822;6.860;2023-03-11T16:37:54;300.77;;;107.70;;
55172;SDS011;41061;52.822;6.860;2023-03-11T16:40:21;85.65;;;36.63;;